Albuquerque, NM (87106)

10:47 PM MDT on September 02, 2015 (GMT -0600)
UNM | | Change Station
CLOSE
Current Station
Personal Weather Station
Location: Albuquerque, NM
Elevation: 5280 ft
Nearby Weather Stations

Elev 5280 ft 35.09 °N, 106.62 °W | Updated 10 seconds ago

Mostly Cloudy
Mostly Cloudy
72.1 °F
Feels Like 77 °F
N
0.0
Wind Variable Wind from NNW
Gusts 0.0 mph

Today
High -- | Low -- °F
--% Chance of Precip.
Yesterday
High -- | Low -- °F
Precip. -- in
6:39 AM 7:32 PM
Waning Gibbous, 74% visible
Pressure 29.97 in
Visibility 10.0 miles
Clouds Scattered Clouds 9000 ft
Mostly Cloudy 13000 ft
Mostly Cloudy 20000 ft
Heat Index 77 °F
Dew Point 52 °F
Humidity 50%
Rainfall 0.00 in
Snow Depth Not available.
UV 0 out of 12
Pollen 7.90 out of 12
Air Quality Not available.
Flu Activity Not available.
METAR KABQ 030352Z 28004KT 10SM SCT090 BKN130 BKN200 23/09 A3021 RMK AO2 SLP147 T02280094
Pressure 29.97 in
Visibility 10.0 miles
Clouds Scattered Clouds 9000 ft
Mostly Cloudy 13000 ft
Mostly Cloudy 20000 ft
Heat Index 77 °F
Dew Point 52 °F
Humidity 50%
Rainfall 0.00 in
Snow Depth Not available.
UV 0 out of 12
Pollen 7.90 out of 12
Air Quality Not available.
Flu Activity Not available.
METAR KABQ 030352Z 28004KT 10SM SCT090 BKN130 BKN200 23/09 A3021 RMK AO2 SLP147 T02280094

10-Day Weather Forecast

×

Almanac

Astronomy

Sep. 02, 2015 Rise Set
Actual Time
Civil Twilight
Nautical Twilight
Astronomical Twilight
Moon
Length of Visible Light
Length of Day
Tomorrow will be .
, % of the Moon is Illuminated

Today's Extremes

State Highs State Lows

Community

WunderPhotos

Upload Photos

1,851,913 photos uploaded!

WunderBlogs® & News

Nearby

Air Quality

  Air Quality AQ Index Pollutant
Not available.

Snow Depth

Station Depth Elevation

Earthquake Activity

City Distance Mag. Time & Date
Minimum magnitude displayed is 2.5.

Coastal Water Temperatures

Place Temperature

Stations

Nearby Weather Stations

Station Location Temp. Windchill Dew Point Humidity Wind Precip. Elev Updated Type